Time;durP1;ratioP1;P1;durP2;ratioP2;P2;SDS_P1;SDS_P2;PMS_P1;PMS_P2;Temp;Humidity;BMP_temperature;BMP_pressure;BME280_temperature;BME280_humidity;BME280_pressure;Samples;Min_cycle;Max_cycle;Signal;HPM_P1;HPM_P2
2023/07/26 00:02:28;;;;;;;3.72;1.02;;;11.30;99.90;;;;;;7279752;32;20485;-56
2023/07/26 00:06:30;;;;;;;2.60;1.00;;;11.40;99.90;;;;;;7285111;32;20534;-56
2023/07/26 00:10:32;;;;;;;2.55;1.15;;;11.50;99.90;;;;;;7291662;32;20229;-56
2023/07/26 00:14:33;;;;;;;3.15;0.80;;;11.50;99.90;;;;;;7290118;32;20180;-56
2023/07/26 00:18:37;;;;;;;5.70;0.90;;;11.50;99.90;;;;;;7286308;32;20142;-56
2023/07/26 00:22:39;;;;;;;4.28;1.02;;;11.60;99.90;;;;;;7308685;32;20133;-56
2023/07/26 00:26:41;;;;;;;3.37;1.17;;;11.60;99.90;;;;;;7291958;32;20115;-55
2023/07/26 00:30:43;;;;;;;4.15;0.90;;;11.60;99.90;;;;;;7307453;32;20212;-55
2023/07/26 00:34:44;;;;;;;3.42;0.98;;;11.60;99.90;;;;;;7290164;32;20119;-55
2023/07/26 00:38:46;;;;;;;3.37;0.80;;;11.60;99.90;;;;;;7297457;32;20667;-55
2023/07/26 00:42:48;;;;;;;3.47;0.98;;;11.60;99.90;;;;;;7286902;32;20239;-55
2023/07/26 00:46:50;;;;;;;1.95;0.80;;;11.70;99.90;;;;;;7316161;32;20115;-55
2023/07/26 00:50:53;;;;;;;4.50;0.90;;;11.70;99.90;;;;;;7264959;32;20170;-55
2023/07/26 00:54:55;;;;;;;3.47;1.10;;;11.70;99.90;;;;;;7289791;32;20231;-56
2023/07/26 00:58:58;;;;;;;2.58;0.85;;;11.70;99.90;;;;;;7299481;32;20175;-56
2023/07/26 01:03:00;;;;;;;2.87;0.88;;;11.80;99.90;;;;;;7287679;32;20108;-55
2023/07/26 01:07:29;;;;;;;2.75;1.15;;;11.80;99.90;;;;;;7307550;32;20217;-56
2023/07/26 01:11:38;;;;;;;4.60;1.00;;;11.80;99.90;;;;;;7300204;32;20175;-56
2023/07/26 01:15:41;;;;;;;2.92;0.98;;;11.80;99.90;;;;;;7305842;32;20614;-56
2023/07/26 01:19:43;;;;;;;2.92;1.00;;;11.80;99.90;;;;;;7307322;32;20103;-55
2023/07/26 01:23:45;;;;;;;1.20;0.90;;;11.80;99.90;;;;;;7290158;32;20112;-56
2023/07/26 01:27:46;;;;;;;6.90;1.08;;;11.80;99.90;;;;;;7295578;32;20151;-55
2023/07/26 01:31:49;;;;;;;2.60;1.02;;;11.70;99.90;;;;;;7318389;32;20142;-56
2023/07/26 01:35:52;;;;;;;2.92;1.05;;;11.70;99.90;;;;;;7305993;32;20205;-56
2023/07/26 01:39:54;;;;;;;2.35;0.93;;;11.70;99.90;;;;;;7293822;32;20120;-56
2023/07/26 01:43:56;;;;;;;2.60;0.90;;;11.70;99.90;;;;;;7295103;32;20483;-55
2023/07/26 01:47:58;;;;;;;2.95;1.00;;;11.70;99.90;;;;;;7326706;32;20131;-55
2023/07/26 01:52:00;;;;;;;3.20;1.00;;;11.70;99.90;;;;;;7293807;32;20173;-56
2023/07/26 01:56:02;;;;;;;3.17;1.10;;;11.70;99.90;;;;;;7288235;32;20138;-56
2023/07/26 02:00:05;;;;;;;3.37;1.10;;;11.70;99.90;;;;;;7283795;32;20117;-56
2023/07/26 02:04:06;;;;;;;3.87;1.20;;;11.60;99.90;;;;;;7300434;32;20150;-55
2023/07/26 02:08:08;;;;;;;3.62;0.98;;;11.70;99.90;;;;;;7304543;32;20130;-55
2023/07/26 02:12:10;;;;;;;1.73;0.90;;;11.70;99.90;;;;;;7301861;32;20126;-55
2023/07/26 02:16:11;;;;;;;2.53;0.90;;;11.70;99.90;;;;;;7287978;32;20116;-55
2023/07/26 02:20:13;;;;;;;3.87;1.15;;;11.70;99.90;;;;;;7308632;32;20116;-55
2023/07/26 02:24:15;;;;;;;2.20;1.10;;;11.70;99.90;;;;;;7298693;32;20173;-55
2023/07/26 02:28:17;;;;;;;5.68;1.55;;;11.70;99.90;;;;;;7316595;32;20323;-55
2023/07/26 02:32:18;;;;;;;2.72;0.98;;;11.70;99.90;;;;;;7283784;32;20120;-55
2023/07/26 02:36:20;;;;;;;3.40;1.00;;;11.70;99.90;;;;;;7287416;32;20442;-55
2023/07/26 02:40:22;;;;;;;2.35;1.00;;;11.80;99.90;;;;;;7310487;32;20186;-55
2023/07/26 02:44:23;;;;;;;6.43;1.20;;;11.80;99.90;;;;;;7310094;32;20176;-55
2023/07/26 02:48:25;;;;;;;3.90;1.50;;;11.80;99.90;;;;;;7303349;32;20207;-55
2023/07/26 02:52:27;;;;;;;6.37;1.35;;;11.80;99.90;;;;;;7312503;32;20169;-56
2023/07/26 02:56:29;;;;;;;3.67;1.08;;;11.80;99.90;;;;;;7293407;32;20576;-55
2023/07/26 03:00:30;;;;;;;3.20;1.30;;;11.90;99.90;;;;;;7301202;32;20163;-55
2023/07/26 03:04:32;;;;;;;3.65;1.20;;;11.90;99.90;;;;;;7311794;32;20217;-55
2023/07/26 03:08:34;;;;;;;4.70;1.30;;;11.90;99.90;;;;;;7294551;32;20104;-55
2023/07/26 03:12:36;;;;;;;4.20;1.45;;;12.00;99.90;;;;;;7293569;32;20193;-55
2023/07/26 03:16:37;;;;;;;4.37;1.20;;;11.90;99.90;;;;;;7288205;32;20138;-55
2023/07/26 03:20:39;;;;;;;4.95;1.40;;;11.90;99.90;;;;;;7293148;32;20103;-55
2023/07/26 03:24:41;;;;;;;1.92;1.20;;;11.90;99.90;;;;;;7300591;32;20127;-55
2023/07/26 03:28:43;;;;;;;1.92;1.40;;;11.90;99.90;;;;;;7299629;32;20238;-55
2023/07/26 03:32:45;;;;;;;6.47;1.30;;;11.90;99.90;;;;;;7292724;32;20816;-55
2023/07/26 03:36:47;;;;;;;3.42;1.30;;;11.90;99.90;;;;;;7307238;32;20130;-55
2023/07/26 03:40:48;;;;;;;4.93;1.48;;;12.00;99.90;;;;;;7304921;32;20538;-56
2023/07/26 03:44:50;;;;;;;2.03;1.30;;;12.00;99.90;;;;;;7300229;32;20119;-55
2023/07/26 03:48:52;;;;;;;4.28;1.40;;;12.00;99.90;;;;;;7290645;32;20203;-55
2023/07/26 03:52:54;;;;;;;5.00;3.87;;;12.20;99.90;;;;;;7317855;32;20522;-54
2023/07/26 03:56:55;;;;;;;3.20;1.80;;;12.30;99.90;;;;;;7277248;32;20199;-55
2023/07/26 04:00:57;;;;;;;4.15;1.30;;;12.40;99.90;;;;;;7301892;32;20162;-55
2023/07/26 04:04:59;;;;;;;3.37;1.40;;;12.30;99.90;;;;;;7298101;32;20179;-55
2023/07/26 04:09:00;;;;;;;3.50;1.20;;;12.20;99.90;;;;;;7305770;32;20132;-55
2023/07/26 04:13:02;;;;;;;2.83;1.30;;;12.00;99.90;;;;;;7283584;32;20202;-55
2023/07/26 04:17:04;;;;;;;3.25;1.70;;;11.90;99.90;;;;;;7299079;32;20115;-55
2023/07/26 04:21:06;;;;;;;2.17;1.67;;;11.90;99.90;;;;;;7310386;32;20136;-55
2023/07/26 04:25:08;;;;;;;3.65;2.12;;;11.80;99.90;;;;;;7285669;32;20127;-55
2023/07/26 04:29:09;;;;;;;3.80;2.37;;;11.80;99.90;;;;;;7301341;32;20586;-55
2023/07/26 04:33:11;;;;;;;5.93;2.95;;;11.70;99.90;;;;;;7282546;32;20104;-55
2023/07/26 04:37:13;;;;;;;5.40;2.95;;;11.80;99.90;;;;;;7285495;32;20596;-55
2023/07/26 04:41:15;;;;;;;5.35;3.30;;;11.80;99.90;;;;;;7302588;32;20130;-55
2023/07/26 04:45:16;;;;;;;5.03;3.17;;;11.80;99.90;;;;;;7289672;32;20395;-55
2023/07/26 04:49:18;;;;;;;4.28;2.87;;;11.90;99.90;;;;;;7310918;32;20162;-56
2023/07/26 04:53:20;;;;;;;5.28;3.47;;;12.20;99.90;;;;;;7316774;32;20188;-56
2023/07/26 04:57:21;;;;;;;5.60;3.10;;;12.30;99.90;;;;;;7297644;32;20185;-56
2023/07/26 05:01:23;;;;;;;7.57;2.85;;;12.40;99.90;;;;;;7291187;32;20226;-56
2023/07/26 05:05:25;;;;;;;5.20;3.85;;;12.50;99.90;;;;;;7274031;32;20317;-56
2023/07/26 05:09:27;;;;;;;5.53;3.28;;;12.70;99.90;;;;;;7295721;32;20757;-56
2023/07/26 05:13:29;;;;;;;3.72;3.25;;;12.80;99.90;;;;;;7293982;32;20142;-56
2023/07/26 05:17:30;;;;;;;6.32;3.67;;;12.80;99.90;;;;;;7289539;32;20136;-56
2023/07/26 05:21:32;;;;;;;5.97;4.57;;;12.90;99.90;;;;;;7299581;32;20176;-56
2023/07/26 05:25:34;;;;;;;5.68;4.62;;;13.00;99.90;;;;;;7289388;32;20123;-56
2023/07/26 05:29:36;;;;;;;5.70;4.57;;;13.10;99.90;;;;;;7285897;32;20246;-56
2023/07/26 05:33:38;;;;;;;5.62;4.12;;;13.20;99.90;;;;;;7280031;32;20123;-56
2023/07/26 05:37:40;;;;;;;5.15;4.57;;;13.10;99.90;;;;;;7291351;32;20509;-56
2023/07/26 05:41:42;;;;;;;6.53;4.22;;;13.10;99.90;;;;;;7289794;32;20116;-56
2023/07/26 05:45:44;;;;;;;8.05;5.03;;;13.20;99.90;;;;;;7290130;32;20112;-57
2023/07/26 05:49:46;;;;;;;6.57;4.90;;;13.40;99.90;;;;;;7296119;32;20698;-57
2023/07/26 05:53:47;;;;;;;6.53;4.37;;;13.60;99.90;;;;;;7302240;32;20170;-56
2023/07/26 05:57:49;;;;;;;7.05;3.83;;;13.60;99.90;;;;;;7285245;32;20132;-56
2023/07/26 06:01:51;;;;;;;4.70;3.78;;;13.70;99.90;;;;;;7295470;32;20223;-56
2023/07/26 06:05:53;;;;;;;5.68;3.75;;;13.80;99.90;;;;;;7291286;32;20796;-56
2023/07/26 06:09:54;;;;;;;5.93;4.18;;;13.70;99.90;;;;;;7304283;32;20641;-56
2023/07/26 06:13:56;;;;;;;9.85;4.00;;;13.90;99.90;;;;;;7294868;32;20115;-56
2023/07/26 06:17:58;;;;;;;6.97;4.22;;;13.90;99.90;;;;;;7294089;32;20140;-57
2023/07/26 06:22:00;;;;;;;6.10;4.57;;;14.00;99.90;;;;;;7305087;32;20198;-57
2023/07/26 06:26:02;;;;;;;6.32;3.80;;;14.20;99.90;;;;;;7303244;32;20212;-56
2023/07/26 06:30:05;;;;;;;6.55;3.60;;;14.90;99.90;;;;;;7286982;32;20630;-56
2023/07/26 06:34:07;;;;;;;5.90;3.70;;;15.60;99.90;;;;;;7294105;32;20120;-56
2023/07/26 06:38:09;;;;;;;4.15;2.78;;;16.40;99.90;;;;;;7295411;32;20116;-56
2023/07/26 06:42:11;;;;;;;5.95;3.05;;;17.40;99.90;;;;;;7290120;32;20271;-57
2023/07/26 06:46:12;;;;;;;4.40;2.78;;;18.50;99.90;;;;;;7292174;32;20759;-57
2023/07/26 06:50:14;;;;;;;5.18;2.47;;;19.70;99.90;;;;;;7297899;32;20191;-57
2023/07/26 06:54:16;;;;;;;6.00;2.40;;;20.00;99.90;;;;;;7302590;32;20489;-56
2023/07/26 06:58:18;;;;;;;5.25;3.40;;;19.90;99.90;;;;;;7281754;32;20164;-57
2023/07/26 07:02:19;;;;;;;3.60;2.58;;;19.70;99.90;;;;;;7290895;32;20108;-58
2023/07/26 07:06:21;;;;;;;7.00;3.00;;;20.10;99.90;;;;;;7291986;32;20601;-56
2023/07/26 07:10:23;;;;;;;5.40;3.10;;;20.10;99.90;;;;;;7293187;32;20108;-57
2023/07/26 07:14:25;;;;;;;6.35;2.92;;;19.80;99.90;;;;;;7283166;32;20666;-56
2023/07/26 07:18:27;;;;;;;6.30;3.00;;;19.80;99.90;;;;;;7291880;32;20112;-57
2023/07/26 07:22:28;;;;;;;4.70;2.80;;;20.00;99.90;;;;;;7291102;32;20174;-57
2023/07/26 07:26:31;;;;;;;6.10;3.75;;;20.00;99.90;;;;;;7293022;32;20131;-57
2023/07/26 07:30:32;;;;;;;9.00;3.92;;;19.70;99.90;;;;;;7296999;32;20180;-57
2023/07/26 07:34:34;;;;;;;6.95;4.00;;;19.10;99.90;;;;;;7295734;32;20229;-57
2023/07/26 07:38:36;;;;;;;8.55;4.78;;;18.50;99.90;;;;;;7288479;32;20578;-57
2023/07/26 07:42:38;;;;;;;9.13;4.50;;;18.00;99.90;;;;;;7294548;32;20119;-58
2023/07/26 07:46:40;;;;;;;8.50;4.55;;;17.70;99.90;;;;;;7290257;32;20176;-57
2023/07/26 07:50:57;;;;;;;6.80;4.60;;;17.70;99.90;;;;;;7295011;32;20239;-57
2023/07/26 07:54:59;;;;;;;8.55;5.50;;;17.30;99.90;;;;;;7295323;32;20557;-58
2023/07/26 07:59:01;;;;;;;8.18;5.37;;;17.10;99.90;;;;;;7295534;32;20154;-58
2023/07/26 08:03:03;;;;;;;9.13;5.25;;;17.00;99.90;;;;;;7285065;32;20166;-57
2023/07/26 08:07:05;;;;;;;7.40;5.90;;;16.90;99.90;;;;;;7280786;32;20211;-57
2023/07/26 08:11:07;;;;;;;15.38;6.05;;;16.90;99.90;;;;;;7288084;32;20181;-58
2023/07/26 08:15:09;;;;;;;10.25;6.30;;;16.90;99.90;;;;;;7288082;32;20134;-58
2023/07/26 08:19:11;;;;;;;12.13;6.03;;;17.10;99.90;;;;;;7294556;32;20172;-57
2023/07/26 08:23:13;;;;;;;9.73;6.10;;;17.40;99.90;;;;;;7298873;32;20120;-58
2023/07/26 08:27:15;;;;;;;9.32;5.78;;;17.60;99.90;;;;;;7290509;32;20256;-57
2023/07/26 08:31:17;;;;;;;12.73;6.00;;;17.80;99.90;;;;;;7294295;32;20130;-57
2023/07/26 08:35:19;;;;;;;10.40;5.18;;;17.80;99.90;;;;;;7301975;32;20112;-57
2023/07/26 08:39:20;;;;;;;9.85;5.30;;;17.80;99.90;;;;;;7283226;32;20140;-57
2023/07/26 08:43:37;;;;;;;8.20;5.55;;;17.90;99.90;;;;;;7295019;32;20233;-56
2023/07/26 08:47:40;;;;;;;8.57;4.82;;;18.00;99.90;;;;;;7282484;32;20162;-57
2023/07/26 08:51:43;;;;;;;11.48;5.37;;;18.20;99.90;;;;;;7292076;32;20246;-57
2023/07/26 08:55:45;;;;;;;10.50;5.12;;;18.50;99.90;;;;;;7275227;32;20264;-56
2023/07/26 08:59:47;;;;;;;9.57;5.25;;;19.10;99.90;;;;;;7296861;32;20493;-58
2023/07/26 09:03:49;;;;;;;9.88;4.60;;;19.80;99.90;;;;;;7287027;32;20112;-57
2023/07/26 09:07:51;;;;;;;10.10;4.60;;;19.90;99.90;;;;;;7290525;32;20154;-57
2023/07/26 09:11:53;;;;;;;9.68;4.22;;;19.50;99.90;;;;;;7292524;32;20586;-58
2023/07/26 09:15:57;;;;;;;6.72;4.57;;;19.10;99.90;;;;;;7284254;32;20264;-57
2023/07/26 09:19:59;;;;;;;8.05;4.90;;;18.40;99.90;;;;;;7285154;32;20284;-57
2023/07/26 09:24:03;;;;;;;10.23;4.32;;;17.80;99.90;;;;;;7306951;32;20107;-56
2023/07/26 09:28:07;;;;;;;4.82;2.83;;;17.30;99.90;;;;;;7293234;32;20138;-57
2023/07/26 09:32:09;;;;;;;2.97;2.12;;;16.60;99.90;;;;;;7285707;32;20125;-56
2023/07/26 09:36:11;;;;;;;4.47;2.37;;;15.90;99.90;;;;;;7307959;32;20100;-57
2023/07/26 09:40:13;;;;;;;7.35;3.00;;;15.60;99.90;;;;;;7302836;32;20591;-57
2023/07/26 09:44:25;;;;;;;14.95;3.78;;;15.50;99.90;;;;;;7296569;32;20218;-57
2023/07/26 09:48:27;;;;;;;5.70;3.08;;;16.30;99.90;;;;;;7294677;32;20169;-56
2023/07/26 09:52:50;;;;;;;4.47;2.87;;;17.00;99.90;;;;;;7301970;32;20103;-57
2023/07/26 09:56:56;;;;;;;5.35;3.45;;;17.80;99.90;;;;;;7298452;32;20199;-56
2023/07/26 10:01:02;;;;;;;7.20;4.07;;;18.60;99.90;;;;;;7296804;32;20120;-57
2023/07/26 10:05:07;;;;;;;6.75;3.72;;;19.80;99.90;;;;;;7290611;32;21202;-57
2023/07/26 10:09:14;;;;;;;5.43;3.92;;;20.50;99.90;;;;;;7288902;32;20108;-57
2023/07/26 10:13:18;;;;;;;8.63;4.05;;;21.20;99.90;;;;;;7300224;32;20131;-56
2023/07/26 10:17:26;;;;;;;7.03;4.15;;;21.30;99.90;;;;;;7271107;32;20115;-56
2023/07/26 10:21:28;;;;;;;6.82;2.87;;;21.40;99.90;;;;;;7288191;32;20255;-58
2023/07/26 10:25:31;;;;;;;6.47;3.20;;;21.20;99.90;;;;;;7280588;32;20595;-57
2023/07/26 10:29:33;;;;;;;5.57;3.03;;;20.90;99.90;;;;;;7281659;32;20156;-56
2023/07/26 10:33:45;;;;;;;4.65;2.72;;;21.30;99.90;;;;;;7287733;32;20203;-56
2023/07/26 10:37:46;;;;;;;3.42;2.10;;;21.90;99.90;;;;;;7286181;32;20716;-56
2023/07/26 10:41:50;;;;;;;3.70;2.42;;;22.20;99.90;;;;;;7279998;32;20442;-57
2023/07/26 10:45:55;;;;;;;5.28;2.08;;;21.80;99.90;;;;;;7285706;32;20130;-57
2023/07/26 10:50:06;;;;;;;2.75;1.95;;;22.10;99.90;;;;;;7282877;32;20128;-58
2023/07/26 10:54:08;;;;;;;3.95;2.28;;;22.30;99.90;;;;;;7283480;32;20115;-57
2023/07/26 10:58:13;;;;;;;7.60;3.22;;;22.50;99.90;;;;;;7295671;32;20172;-57
2023/07/26 11:02:14;;;;;;;6.25;3.10;;;21.90;99.90;;;;;;7286947;32;20148;-57
2023/07/26 11:06:17;;;;;;;5.10;3.15;;;21.50;99.90;;;;;;7289835;32;20159;-57
2023/07/26 11:10:24;;;;;;;3.75;2.70;;;21.40;99.90;;;;;;7284934;32;20249;-57
2023/07/26 11:14:28;;;;;;;4.85;3.33;;;21.60;99.90;;;;;;7280803;32;20214;-56
2023/07/26 11:18:37;;;;;;;7.18;3.85;;;21.50;99.90;;;;;;7286044;32;20104;-57
2023/07/26 11:22:39;;;;;;;8.38;3.37;;;21.80;99.90;;;;;;7277987;32;20116;-57
2023/07/26 11:26:46;;;;;;;6.53;3.35;;;21.90;99.90;;;;;;7268039;32;20263;-57
2023/07/26 11:30:48;;;;;;;5.10;3.33;;;21.80;99.90;;;;;;7289692;32;20213;-57
2023/07/26 11:34:54;;;;;;;9.73;4.65;;;20.90;99.90;;;;;;7288892;32;20161;-56
2023/07/26 11:38:56;;;;;;;6.40;4.18;;;20.20;99.90;;;;;;7280559;32;20203;-56
2023/07/26 11:42:58;;;;;;;6.25;4.00;;;19.40;99.90;;;;;;7288477;32;20123;-56
2023/07/26 11:47:03;;;;;;;7.80;3.85;;;19.40;99.90;;;;;;7281890;32;20112;-58
2023/07/26 11:51:05;;;;;;;4.25;2.67;;;19.90;99.90;;;;;;7286276;32;20127;-56
2023/07/26 11:55:08;;;;;;;3.42;2.33;;;20.20;99.90;;;;;;7279697;32;20134;-58
2023/07/26 11:59:11;;;;;;;5.87;3.05;;;20.30;99.90;;;;;;7288867;32;20519;-57
2023/07/26 12:03:13;;;;;;;6.00;2.90;;;20.60;99.90;;;;;;7279305;32;20131;-57
2023/07/26 12:07:15;;;;;;;5.32;2.85;;;20.20;99.90;;;;;;7278907;32;20526;-57
2023/07/26 12:11:17;;;;;;;6.45;2.95;;;20.00;99.90;;;;;;7283089;32;20198;-57
2023/07/26 12:15:19;;;;;;;5.97;3.22;;;19.80;99.90;;;;;;7279572;32;20462;-57
2023/07/26 12:19:22;;;;;;;6.72;3.10;;;19.80;99.90;;;;;;7290536;32;20621;-57
2023/07/26 12:23:26;;;;;;;4.97;3.28;;;20.50;99.90;;;;;;7286348;32;20111;-56
2023/07/26 12:27:34;;;;;;;7.53;3.67;;;20.60;99.90;;;;;;7286349;32;20107;-57
2023/07/26 12:31:39;;;;;;;11.15;4.28;;;20.30;99.90;;;;;;7280574;32;20547;-56
2023/07/26 12:35:44;;;;;;;9.10;3.72;;;19.90;99.90;;;;;;7270460;32;20163;-57
2023/07/26 12:39:48;;;;;;;8.73;3.97;;;20.20;99.90;;;;;;7268573;32;20921;-56
2023/07/26 12:43:54;;;;;;;5.70;3.30;;;20.40;99.90;;;;;;7280468;32;20124;-56
2023/07/26 12:47:56;;;;;;;7.43;4.45;;;20.00;99.90;;;;;;7285649;32;20211;-56
2023/07/26 12:51:59;;;;;;;6.15;3.08;;;19.80;99.90;;;;;;7284313;32;20111;-56
2023/07/26 12:56:01;;;;;;;4.93;3.45;;;19.60;99.90;;;;;;7279880;32;20131;-57
2023/07/26 13:00:03;;;;;;;8.63;3.62;;;20.00;99.90;;;;;;7278135;32;20761;-57
2023/07/26 13:04:05;;;;;;;4.87;3.10;;;20.80;99.90;;;;;;7290995;32;20227;-56
2023/07/26 13:08:08;;;;;;;4.72;3.20;;;21.30;99.90;;;;;;7287411;32;20198;-56
2023/07/26 13:12:10;;;;;;;7.70;4.03;;;20.90;99.90;;;;;;7284152;32;20531;-57
2023/07/26 13:16:11;;;;;;;6.68;3.40;;;21.20;99.90;;;;;;7279268;32;20561;-56
2023/07/26 13:20:14;;;;;;;7.28;3.85;;;21.80;99.90;;;;;;7272915;32;20168;-57
2023/07/26 13:24:15;;;;;;;4.78;2.80;;;21.90;99.90;;;;;;7292803;32;20517;-56
2023/07/26 13:28:17;;;;;;;5.90;3.40;;;22.00;99.90;;;;;;7283546;32;20203;-56
2023/07/26 13:32:21;;;;;;;7.82;3.08;;;21.60;99.90;;;;;;7288081;32;20132;-57
2023/07/26 13:36:23;;;;;;;6.15;3.17;;;21.10;99.90;;;;;;7282161;32;20226;-56
2023/07/26 13:40:25;;;;;;;4.28;2.50;;;20.60;99.90;;;;;;7286056;32;20132;-56
2023/07/26 13:44:27;;;;;;;5.93;3.53;;;20.10;99.90;;;;;;7278424;32;20104;-56
2023/07/26 13:48:29;;;;;;;6.97;3.95;;;20.60;99.90;;;;;;7278509;32;20168;-58
2023/07/26 13:52:30;;;;;;;5.62;2.40;;;20.80;99.90;;;;;;7278411;32;20108;-58
2023/07/26 13:56:33;;;;;;;3.92;2.33;;;21.30;99.90;;;;;;7283756;32;20104;-58
2023/07/26 14:00:35;;;;;;;2.90;1.55;;;21.40;99.90;;;;;;7285469;32;20117;-57
2023/07/26 14:04:36;;;;;;;3.53;1.60;;;21.20;99.90;;;;;;7278435;32;20524;-57
2023/07/26 14:08:38;;;;;;;3.33;2.10;;;21.30;99.90;;;;;;7265238;32;20182;-58
2023/07/26 14:12:40;;;;;;;3.10;2.10;;;21.10;99.90;;;;;;7282272;32;20103;-57
2023/07/26 14:16:45;;;;;;;4.75;2.30;;;20.90;99.90;;;;;;7290200;32;20194;-57
2023/07/26 14:20:49;;;;;;;3.08;2.40;;;20.80;99.90;;;;;;7286829;32;20277;-57
2023/07/26 14:24:50;;;;;;;4.53;2.37;;;21.20;99.90;;;;;;7276498;32;20932;-57
2023/07/26 14:28:52;;;;;;;2.78;1.95;;;21.90;99.90;;;;;;7288256;32;20314;-58
2023/07/26 14:32:54;;;;;;;3.92;2.60;;;21.90;99.90;;;;;;7289421;32;20196;-57
2023/07/26 14:36:56;;;;;;;5.43;2.80;;;21.30;99.90;;;;;;7287835;32;20127;-57
2023/07/26 14:40:57;;;;;;;5.72;2.78;;;20.60;99.90;;;;;;7294996;32;20222;-57
2023/07/26 14:44:59;;;;;;;4.95;2.80;;;20.40;99.90;;;;;;7281795;32;20143;-58
2023/07/26 14:49:01;;;;;;;5.57;2.22;;;20.60;99.90;;;;;;7286509;32;20127;-58
2023/07/26 14:53:03;;;;;;;5.90;2.83;;;21.20;99.90;;;;;;7283896;32;20112;-58
2023/07/26 14:57:05;;;;;;;3.30;2.33;;;21.60;99.90;;;;;;7281099;32;20719;-58
2023/07/26 15:01:13;;;;;;;5.40;2.40;;;22.30;99.90;;;;;;7281614;32;20112;-55
2023/07/26 15:05:15;;;;;;;5.60;3.22;;;21.90;99.90;;;;;;7282529;32;20257;-56
2023/07/26 15:09:17;;;;;;;8.07;3.47;;;22.00;99.90;;;;;;7281824;32;20230;-56
2023/07/26 15:13:19;;;;;;;5.80;3.00;;;22.60;99.90;;;;;;7292449;32;20188;-56
2023/07/26 15:17:21;;;;;;;5.37;2.87;;;22.80;99.90;;;;;;7290122;32;20188;-56
2023/07/26 15:21:23;;;;;;;5.35;3.00;;;23.00;99.90;;;;;;7294560;32;20112;-57
2023/07/26 15:25:24;;;;;;;4.07;2.10;;;23.00;99.90;;;;;;7281052;32;20125;-56
2023/07/26 15:29:27;;;;;;;3.83;2.28;;;22.50;99.90;;;;;;7280118;32;20165;-56
2023/07/26 15:33:29;;;;;;;7.00;2.50;;;22.20;99.90;;;;;;7282226;32;20120;-56
2023/07/26 15:37:31;;;;;;;3.75;2.67;;;22.00;99.90;;;;;;7291302;32;20137;-58
2023/07/26 15:41:33;;;;;;;3.17;2.40;;;21.80;99.90;;;;;;7287305;32;20154;-58
2023/07/26 15:45:48;;;;;;;4.62;2.45;;;21.60;99.90;;;;;;7283409;32;20108;-58
2023/07/26 15:49:53;;;;;;;2.62;1.85;;;21.20;99.90;;;;;;7283927;32;20096;-57
2023/07/26 15:53:58;;;;;;;4.45;2.15;;;21.20;99.90;;;;;;7283133;32;20211;-56
2023/07/26 15:57:59;;;;;;;3.85;2.05;;;20.90;99.90;;;;;;7284905;32;20135;-57
2023/07/26 16:02:01;;;;;;;3.67;1.80;;;20.80;99.90;;;;;;7287677;32;20120;-56
2023/07/26 16:06:03;;;;;;;3.85;1.87;;;20.90;99.90;;;;;;7281372;32;20108;-56
2023/07/26 16:10:08;;;;;;;3.97;2.22;;;21.00;99.90;;;;;;7282631;32;20550;-57
2023/07/26 16:14:10;;;;;;;3.30;2.20;;;21.10;99.90;;;;;;7282672;32;20175;-58
2023/07/26 16:18:15;;;;;;;4.70;2.12;;;21.00;99.90;;;;;;7284127;32;20146;-57
2023/07/26 16:22:17;;;;;;;5.72;2.62;;;20.90;99.90;;;;;;7291094;32;20506;-57
2023/07/26 16:26:19;;;;;;;4.95;2.17;;;21.00;99.90;;;;;;7278655;32;20217;-57
2023/07/26 16:30:21;;;;;;;4.62;2.28;;;21.10;99.90;;;;;;7278443;32;20211;-56
2023/07/26 16:34:22;;;;;;;2.78;1.90;;;21.00;99.90;;;;;;7286453;32;20146;-56
2023/07/26 16:38:24;;;;;;;4.87;1.80;;;20.90;99.90;;;;;;7287387;32;20251;-57
2023/07/26 16:42:26;;;;;;;5.93;2.53;;;20.90;99.90;;;;;;7280742;32;20131;-57
2023/07/26 16:46:27;;;;;;;3.92;2.45;;;20.80;99.90;;;;;;7284397;32;20215;-57
2023/07/26 16:50:49;;;;;;;3.35;2.25;;;20.80;99.90;;;;;;7288132;32;20360;-57
2023/07/26 16:54:51;;;;;;;4.60;2.53;;;20.70;99.90;;;;;;7281439;32;20139;-57
2023/07/26 16:58:53;;;;;;;4.53;2.33;;;20.60;99.90;;;;;;7286123;32;20227;-57
2023/07/26 17:02:55;;;;;;;3.62;1.92;;;20.30;99.90;;;;;;7288719;32;20716;-57
2023/07/26 17:06:57;;;;;;;3.80;2.33;;;20.20;99.90;;;;;;7286800;32;20107;-57
2023/07/26 17:10:59;;;;;;;3.85;1.98;;;20.20;99.90;;;;;;7285194;32;20134;-58
2023/07/26 17:15:01;;;;;;;3.70;2.30;;;20.20;99.90;;;;;;7269479;32;20120;-57
2023/07/26 17:19:03;;;;;;;3.50;2.00;;;20.00;99.90;;;;;;7284442;32;20258;-57
2023/07/26 17:23:05;;;;;;;3.35;2.10;;;19.90;99.90;;;;;;7279419;32;20161;-57
2023/07/26 17:27:06;;;;;;;3.72;1.98;;;19.80;99.90;;;;;;7277785;32;20161;-57
2023/07/26 17:31:08;;;;;;;3.78;2.20;;;19.60;99.90;;;;;;7279602;32;20258;-57
2023/07/26 17:35:10;;;;;;;4.68;2.20;;;19.60;99.90;;;;;;7284924;32;20135;-57
2023/07/26 17:39:12;;;;;;;4.00;2.22;;;19.70;99.90;;;;;;7281671;32;20132;-58
2023/07/26 17:43:14;;;;;;;3.58;2.20;;;19.70;99.90;;;;;;7284361;32;20203;-57
2023/07/26 17:47:16;;;;;;;3.62;1.98;;;19.80;99.90;;;;;;7293143;32;20127;-57
2023/07/26 17:51:17;;;;;;;4.70;2.60;;;19.80;99.90;;;;;;7287964;32;20195;-57
2023/07/26 17:55:19;;;;;;;4.30;2.10;;;19.60;99.90;;;;;;7288002;32;20594;-57
2023/07/26 17:59:21;;;;;;;3.17;2.40;;;19.60;99.90;;;;;;7290910;32;20211;-56
2023/07/26 18:03:23;;;;;;;5.65;2.17;;;19.40;99.90;;;;;;7285920;32;20158;-57
2023/07/26 18:07:24;;;;;;;3.95;2.35;;;19.50;99.90;;;;;;7284273;32;20116;-57
2023/07/26 18:11:26;;;;;;;3.37;2.45;;;19.50;99.90;;;;;;7286866;32;20108;-57
2023/07/26 18:15:28;;;;;;;5.07;2.25;;;19.30;99.90;;;;;;7286294;32;20753;-57
2023/07/26 18:19:30;;;;;;;4.45;2.30;;;19.30;99.90;;;;;;7274716;32;20740;-57
2023/07/26 18:23:32;;;;;;;3.25;2.20;;;19.20;99.90;;;;;;7283620;32;20170;-57
2023/07/26 18:27:34;;;;;;;5.00;2.30;;;19.10;99.90;;;;;;7286983;32;20185;-57
2023/07/26 18:31:36;;;;;;;5.97;2.50;;;18.90;99.90;;;;;;7283294;32;20108;-57
2023/07/26 18:35:42;;;;;;;3.90;2.33;;;18.80;99.90;;;;;;7294420;32;20165;-57
2023/07/26 18:39:44;;;;;;;2.97;2.28;;;18.60;99.90;;;;;;7281642;32;20127;-57
2023/07/26 18:43:45;;;;;;;6.47;2.00;;;18.30;99.90;;;;;;7283741;32;20136;-57
2023/07/26 18:47:47;;;;;;;4.65;2.72;;;18.10;99.90;;;;;;7281200;32;20769;-57
2023/07/26 18:51:49;;;;;;;6.47;2.67;;;17.80;99.90;;;;;;7283024;32;20319;-57
2023/07/26 18:55:51;;;;;;;7.30;2.58;;;17.60;99.90;;;;;;7280160;32;20144;-57
2023/07/26 18:59:52;;;;;;;4.93;2.40;;;17.40;99.90;;;;;;7273376;32;20243;-57
2023/07/26 19:03:54;;;;;;;6.22;2.62;;;17.20;99.90;;;;;;7280824;32;20155;-57
2023/07/26 19:07:56;;;;;;;5.07;2.70;;;17.00;99.90;;;;;;7281925;32;20127;-57
2023/07/26 19:12:03;;;;;;;6.18;2.47;;;16.80;99.90;;;;;;7283510;32;20115;-57
2023/07/26 19:16:05;;;;;;;5.90;2.47;;;16.60;99.90;;;;;;7282985;32;20161;-57
2023/07/26 19:20:07;;;;;;;6.20;2.92;;;16.40;99.90;;;;;;7280445;32;20130;-57
2023/07/26 19:24:09;;;;;;;5.93;2.47;;;16.10;99.90;;;;;;7280113;32;20195;-57
2023/07/26 19:28:11;;;;;;;5.32;3.12;;;16.00;99.90;;;;;;7284593;32;20701;-57
2023/07/26 19:32:13;;;;;;;6.05;2.55;;;15.80;99.90;;;;;;7283348;32;20161;-56
2023/07/26 19:36:14;;;;;;;4.75;2.90;;;15.70;99.90;;;;;;7280124;32;20630;-57
2023/07/26 19:40:16;;;;;;;5.62;2.47;;;15.60;99.90;;;;;;7285018;32;20108;-55
2023/07/26 19:44:18;;;;;;;4.53;2.60;;;15.40;99.90;;;;;;7290525;32;20454;-56
2023/07/26 19:48:20;;;;;;;5.10;3.08;;;15.30;99.90;;;;;;7284651;32;20228;-56
2023/07/26 19:52:22;;;;;;;4.80;3.00;;;15.20;99.90;;;;;;7269251;32;20159;-57
2023/07/26 19:56:23;;;;;;;4.75;2.50;;;15.20;99.90;;;;;;7289330;32;20171;-55
2023/07/26 20:00:26;;;;;;;7.28;2.90;;;15.10;99.90;;;;;;7280875;32;20540;-56
2023/07/26 20:04:27;;;;;;;5.53;2.80;;;15.00;99.90;;;;;;7268395;32;20544;-56
2023/07/26 20:08:30;;;;;;;5.97;2.80;;;14.90;99.90;;;;;;7285959;32;20237;-57
2023/07/26 20:12:32;;;;;;;6.32;3.50;;;14.90;99.90;;;;;;7283240;32;20124;-57
2023/07/26 20:16:34;;;;;;;6.43;2.42;;;14.90;99.90;;;;;;7279446;32;20104;-57
2023/07/26 20:20:36;;;;;;;6.60;3.33;;;15.00;99.90;;;;;;7287209;32;20108;-57
2023/07/26 20:24:39;;;;;;;6.25;3.50;;;15.00;99.90;;;;;;7285086;32;20127;-58
2023/07/26 20:28:41;;;;;;;7.90;3.00;;;14.90;99.90;;;;;;7283499;32;20195;-57
2023/07/26 20:32:43;;;;;;;5.28;2.83;;;15.00;99.90;;;;;;7280101;32;20523;-57
2023/07/26 20:36:45;;;;;;;6.97;3.67;;;14.90;99.90;;;;;;7279319;32;20112;-56
2023/07/26 20:40:50;;;;;;;7.20;2.58;;;14.80;99.90;;;;;;7287420;32;20112;-56
2023/07/26 20:44:52;;;;;;;4.12;2.67;;;14.80;99.90;;;;;;7278774;32;20135;-56
2023/07/26 20:48:54;;;;;;;5.18;3.15;;;14.80;99.90;;;;;;7280778;32;20135;-57
2023/07/26 20:52:55;;;;;;;5.35;3.28;;;14.80;99.90;;;;;;7283706;32;20117;-55
2023/07/26 20:56:57;;;;;;;7.82;3.40;;;14.80;99.90;;;;;;7280634;32;20115;-61
2023/07/26 21:00:59;;;;;;;5.90;2.67;;;14.80;99.90;;;;;;7278919;32;20214;-57